sensor_id;sensor_type;location;lat;lon;timestamp;pressure;altitude;pressure_sealevel;temperature;humidity
76201;BME280;64981;52.930;9.266;2023-07-29T00:01:34;100422.31;;;18.95;85.00
76201;BME280;64981;52.930;9.266;2023-07-29T00:04:00;100405.19;;;18.96;84.72
76201;BME280;64981;52.930;9.266;2023-07-29T00:06:25;100412.56;;;19.01;84.90
76201;BME280;64981;52.930;9.266;2023-07-29T00:08:51;100402.06;;;18.99;84.86
76201;BME280;64981;52.930;9.266;2023-07-29T00:11:17;100408.09;;;18.95;84.84
76201;BME280;64981;52.930;9.266;2023-07-29T00:13:42;100399.25;;;18.94;84.79
76201;BME280;64981;52.930;9.266;2023-07-29T00:16:08;100396.00;;;18.92;84.78
76201;BME280;64981;52.930;9.266;2023-07-29T00:18:34;100393.84;;;18.83;85.28
76201;BME280;64981;52.930;9.266;2023-07-29T00:20:59;100390.63;;;18.92;84.70
76201;BME280;64981;52.930;9.266;2023-07-29T00:23:25;100388.53;;;18.94;84.15
76201;BME280;64981;52.930;9.266;2023-07-29T00:25:50;100391.28;;;18.88;84.74
76201;BME280;64981;52.930;9.266;2023-07-29T00:28:16;100388.50;;;18.83;84.97
76201;BME280;64981;52.930;9.266;2023-07-29T00:30:41;100383.22;;;18.76;84.88
76201;BME280;64981;52.930;9.266;2023-07-29T00:33:07;100396.06;;;18.86;84.89
76201;BME280;64981;52.930;9.266;2023-07-29T00:35:33;100395.91;;;18.80;85.13
76201;BME280;64981;52.930;9.266;2023-07-29T00:37:59;100392.41;;;18.80;84.52
76201;BME280;64981;52.930;9.266;2023-07-29T00:40:28;100399.53;;;18.86;84.54
76201;BME280;64981;52.930;9.266;2023-07-29T00:42:54;100392.41;;;18.80;84.25
76201;BME280;64981;52.930;9.266;2023-07-29T00:45:19;100406.91;;;18.91;83.94
76201;BME280;64981;52.930;9.266;2023-07-29T00:47:46;100392.31;;;18.87;83.49
76201;BME280;64981;52.930;9.266;2023-07-29T00:50:13;100403.84;;;18.87;83.69
76201;BME280;64981;52.930;9.266;2023-07-29T00:52:40;100400.81;;;18.84;83.65
76201;BME280;64981;52.930;9.266;2023-07-29T00:55:06;100399.41;;;18.81;83.90
76201;BME280;64981;52.930;9.266;2023-07-29T00:57:33;100390.84;;;18.72;83.64
76201;BME280;64981;52.930;9.266;2023-07-29T00:59:59;100398.38;;;18.82;83.49
76201;BME280;64981;52.930;9.266;2023-07-29T01:02:26;100393.06;;;18.75;83.13
76201;BME280;64981;52.930;9.266;2023-07-29T01:04:54;100401.28;;;18.74;83.54
76201;BME280;64981;52.930;9.266;2023-07-29T01:07:33;100388.56;;;18.76;82.97
76201;BME280;64981;52.930;9.266;2023-07-29T01:13:19;100389.72;;;18.62;83.19
76201;BME280;64981;52.930;9.266;2023-07-29T01:16:00;100392.00;;;18.58;83.72
76201;BME280;64981;52.930;9.266;2023-07-29T01:18:31;100399.13;;;18.64;83.25
76201;BME280;64981;52.930;9.266;2023-07-29T01:20:59;100382.75;;;18.61;82.88
76201;BME280;64981;52.930;9.266;2023-07-29T01:23:30;100392.81;;;18.59;82.87
76201;BME280;64981;52.930;9.266;2023-07-29T01:25:56;100396.41;;;18.53;83.33
76201;BME280;64981;52.930;9.266;2023-07-29T01:28:22;100392.44;;;18.55;83.30
76201;BME280;64981;52.930;9.266;2023-07-29T01:30:52;100387.34;;;18.54;83.12
76201;BME280;64981;52.930;9.266;2023-07-29T01:33:26;100396.47;;;18.46;83.43
76201;BME280;64981;52.930;9.266;2023-07-29T01:36:01;100396.69;;;18.45;83.69
76201;BME280;64981;52.930;9.266;2023-07-29T01:38:31;100392.38;;;18.44;83.58
76201;BME280;64981;52.930;9.266;2023-07-29T01:41:01;100390.97;;;18.41;83.61
76201;BME280;64981;52.930;9.266;2023-07-29T01:43:28;100389.78;;;18.37;83.82
76201;BME280;64981;52.930;9.266;2023-07-29T01:45:54;100377.44;;;18.36;83.94
76201;BME280;64981;52.930;9.266;2023-07-29T01:48:20;100367.69;;;18.23;84.16
76201;BME280;64981;52.930;9.266;2023-07-29T01:50:46;100380.63;;;18.26;84.22
76201;BME280;64981;52.930;9.266;2023-07-29T01:53:11;100386.19;;;18.25;84.11
76201;BME280;64981;52.930;9.266;2023-07-29T01:55:37;100385.38;;;18.24;83.75
76201;BME280;64981;52.930;9.266;2023-07-29T01:58:03;100385.53;;;18.30;83.50
76201;BME280;64981;52.930;9.266;2023-07-29T02:00:29;100369.78;;;18.21;83.79
76201;BME280;64981;52.930;9.266;2023-07-29T02:02:55;100380.47;;;18.40;82.71
76201;BME280;64981;52.930;9.266;2023-07-29T02:05:20;100386.00;;;18.26;83.23
76201;BME280;64981;52.930;9.266;2023-07-29T02:07:46;100383.91;;;18.28;83.25
76201;BME280;64981;52.930;9.266;2023-07-29T02:10:11;100378.28;;;18.12;83.79
76201;BME280;64981;52.930;9.266;2023-07-29T02:12:37;100384.41;;;18.19;83.62
76201;BME280;64981;52.930;9.266;2023-07-29T02:15:03;100368.63;;;18.11;83.65
76201;BME280;64981;52.930;9.266;2023-07-29T02:17:30;100371.84;;;18.01;83.95
76201;BME280;64981;52.930;9.266;2023-07-29T02:19:55;100368.94;;;18.03;84.04
76201;BME280;64981;52.930;9.266;2023-07-29T02:22:21;100372.94;;;18.12;83.81
76201;BME280;64981;52.930;9.266;2023-07-29T02:24:47;100372.75;;;18.13;83.29
76201;BME280;64981;52.930;9.266;2023-07-29T02:27:12;100362.13;;;18.07;83.05
76201;BME280;64981;52.930;9.266;2023-07-29T02:29:38;100372.56;;;18.08;82.94
76201;BME280;64981;52.930;9.266;2023-07-29T02:32:03;100375.16;;;17.97;83.49
76201;BME280;64981;52.930;9.266;2023-07-29T02:34:29;100383.09;;;18.03;83.47
76201;BME280;64981;52.930;9.266;2023-07-29T02:36:55;100385.78;;;18.03;83.46
76201;BME280;64981;52.930;9.266;2023-07-29T02:39:21;100381.47;;;18.02;83.68
76201;BME280;64981;52.930;9.266;2023-07-29T02:41:47;100383.94;;;18.04;83.80
76201;BME280;64981;52.930;9.266;2023-07-29T02:44:12;100378.78;;;18.02;83.72
76201;BME280;64981;52.930;9.266;2023-07-29T02:46:38;100367.13;;;17.97;84.12
76201;BME280;64981;52.930;9.266;2023-07-29T02:49:04;100366.25;;;18.03;83.62
76201;BME280;64981;52.930;9.266;2023-07-29T02:51:30;100364.34;;;18.10;83.15
76201;BME280;64981;52.930;9.266;2023-07-29T02:53:56;100368.94;;;18.03;83.76
76201;BME280;64981;52.930;9.266;2023-07-29T02:56:22;100377.97;;;18.02;83.75
76201;BME280;64981;52.930;9.266;2023-07-29T02:58:47;100371.16;;;18.06;83.60
76201;BME280;64981;52.930;9.266;2023-07-29T03:01:13;100367.28;;;18.02;83.50
76201;BME280;64981;52.930;9.266;2023-07-29T03:03:39;100372.56;;;18.08;83.15
76201;BME280;64981;52.930;9.266;2023-07-29T03:06:07;100369.16;;;18.01;83.38
76201;BME280;64981;52.930;9.266;2023-07-29T03:08:33;100370.00;;;17.95;83.79
76201;BME280;64981;52.930;9.266;2023-07-29T03:11:06;100351.78;;;17.86;83.75
76201;BME280;64981;52.930;9.266;2023-07-29T03:13:32;100371.66;;;17.96;83.64
76201;BME280;64981;52.930;9.266;2023-07-29T03:16:08;100373.72;;;17.94;83.73
76201;BME280;64981;52.930;9.266;2023-07-29T03:18:36;100373.38;;;17.84;84.17
76201;BME280;64981;52.930;9.266;2023-07-29T03:21:02;100371.53;;;17.85;83.88
76201;BME280;64981;52.930;9.266;2023-07-29T03:23:30;100370.31;;;17.81;84.36
76201;BME280;64981;52.930;9.266;2023-07-29T03:25:56;100378.75;;;17.77;84.43
76201;BME280;64981;52.930;9.266;2023-07-29T03:28:29;100376.19;;;17.64;84.58
76201;BME280;64981;52.930;9.266;2023-07-29T03:30:56;100384.97;;;17.71;83.88
76201;BME280;64981;52.930;9.266;2023-07-29T03:33:25;100377.50;;;17.80;83.54
76201;BME280;64981;52.930;9.266;2023-07-29T03:35:52;100371.19;;;17.74;84.05
76201;BME280;64981;52.930;9.266;2023-07-29T03:38:18;100366.22;;;17.78;83.83
76201;BME280;64981;52.930;9.266;2023-07-29T03:40:44;100353.41;;;17.62;83.95
76201;BME280;64981;52.930;9.266;2023-07-29T03:43:09;100349.47;;;17.64;83.88
76201;BME280;64981;52.930;9.266;2023-07-29T03:45:36;100351.94;;;17.66;84.17
76201;BME280;64981;52.930;9.266;2023-07-29T03:48:03;100369.97;;;17.70;84.19
76201;BME280;64981;52.930;9.266;2023-07-29T03:50:30;100377.41;;;17.68;84.04
76201;BME280;64981;52.930;9.266;2023-07-29T03:52:56;100336.06;;;17.46;84.46
76201;BME280;64981;52.930;9.266;2023-07-29T03:55:22;100357.28;;;17.66;84.34
76201;BME280;64981;52.930;9.266;2023-07-29T03:57:48;100355.00;;;17.69;84.09
76201;BME280;64981;52.930;9.266;2023-07-29T04:00:13;100347.25;;;17.61;84.17
76201;BME280;64981;52.930;9.266;2023-07-29T04:02:41;100362.19;;;17.69;84.11
76201;BME280;64981;52.930;9.266;2023-07-29T04:05:07;100356.47;;;17.65;84.33
76201;BME280;64981;52.930;9.266;2023-07-29T04:07:35;100356.41;;;17.72;84.21
76201;BME280;64981;52.930;9.266;2023-07-29T04:10:01;100324.75;;;17.51;84.35
76201;BME280;64981;52.930;9.266;2023-07-29T04:12:27;100354.78;;;17.71;84.18
76201;BME280;64981;52.930;9.266;2023-07-29T04:14:52;100355.53;;;17.78;83.69
76201;BME280;64981;52.930;9.266;2023-07-29T04:17:18;100347.97;;;17.75;83.20
76201;BME280;64981;52.930;9.266;2023-07-29T04:19:44;100353.91;;;17.77;83.20
76201;BME280;64981;52.930;9.266;2023-07-29T04:22:09;100342.38;;;17.76;82.71
76201;BME280;64981;52.930;9.266;2023-07-29T04:24:35;100343.22;;;17.77;82.92
76201;BME280;64981;52.930;9.266;2023-07-29T04:27:01;100329.38;;;17.62;83.81
76201;BME280;64981;52.930;9.266;2023-07-29T04:29:26;100343.22;;;17.77;83.78
76201;BME280;64981;52.930;9.266;2023-07-29T04:31:53;100353.69;;;17.79;83.95
76201;BME280;64981;52.930;9.266;2023-07-29T04:34:19;100323.59;;;17.65;84.21
76201;BME280;64981;52.930;9.266;2023-07-29T04:36:45;100341.06;;;17.92;83.67
76201;BME280;64981;52.930;9.266;2023-07-29T04:39:14;100316.13;;;17.73;84.26
76201;BME280;64981;52.930;9.266;2023-07-29T04:41:39;100338.75;;;17.96;84.09
76201;BME280;64981;52.930;9.266;2023-07-29T04:44:05;100327.69;;;17.92;84.16
76201;BME280;64981;52.930;9.266;2023-07-29T04:46:31;100333.66;;;17.94;84.43
76201;BME280;64981;52.930;9.266;2023-07-29T04:48:56;100330.41;;;17.86;84.47
76201;BME280;64981;52.930;9.266;2023-07-29T04:51:23;100349.41;;;18.02;83.67
76201;BME280;64981;52.930;9.266;2023-07-29T04:53:49;100356.16;;;18.05;83.76
76201;BME280;64981;52.930;9.266;2023-07-29T04:56:14;100358.56;;;18.13;83.47
76201;BME280;64981;52.930;9.266;2023-07-29T04:58:40;100351.13;;;18.15;83.98
76201;BME280;64981;52.930;9.266;2023-07-29T05:01:06;100354.63;;;18.15;83.82
76201;BME280;64981;52.930;9.266;2023-07-29T05:03:31;100342.66;;;18.18;83.77
76201;BME280;64981;52.930;9.266;2023-07-29T05:05:58;100347.25;;;18.11;84.33
76201;BME280;64981;52.930;9.266;2023-07-29T05:08:25;100338.28;;;18.23;84.03
76201;BME280;64981;52.930;9.266;2023-07-29T05:10:52;100332.13;;;18.23;84.32
76201;BME280;64981;52.930;9.266;2023-07-29T05:13:18;100334.06;;;18.34;83.70
76201;BME280;64981;52.930;9.266;2023-07-29T05:15:44;100327.16;;;18.26;84.12
76201;BME280;64981;52.930;9.266;2023-07-29T05:18:11;100307.91;;;18.00;85.39
76201;BME280;64981;52.930;9.266;2023-07-29T05:20:36;100313.69;;;17.97;86.06
76201;BME280;64981;52.930;9.266;2023-07-29T05:23:02;100315.16;;;18.11;85.35
76201;BME280;64981;52.930;9.266;2023-07-29T05:25:29;100308.97;;;18.35;84.18
76201;BME280;64981;52.930;9.266;2023-07-29T05:27:54;100297.66;;;18.15;84.71
76201;BME280;64981;52.930;9.266;2023-07-29T05:30:20;100316.69;;;18.25;84.39
76201;BME280;64981;52.930;9.266;2023-07-29T05:32:46;100309.84;;;18.29;84.06
76201;BME280;64981;52.930;9.266;2023-07-29T05:35:12;100317.81;;;18.36;84.49
76201;BME280;64981;52.930;9.266;2023-07-29T05:37:40;100293.38;;;18.32;83.88
76201;BME280;64981;52.930;9.266;2023-07-29T05:40:07;100320.22;;;18.55;84.05
76201;BME280;64981;52.930;9.266;2023-07-29T05:42:33;100308.94;;;18.53;84.12
76201;BME280;64981;52.930;9.266;2023-07-29T05:44:59;100316.22;;;18.64;84.04
76201;BME280;64981;52.930;9.266;2023-07-29T05:47:24;100319.03;;;18.69;83.94
76201;BME280;64981;52.930;9.266;2023-07-29T05:49:51;100300.91;;;18.71;83.81
76201;BME280;64981;52.930;9.266;2023-07-29T05:52:17;100315.63;;;18.80;83.43
76201;BME280;64981;52.930;9.266;2023-07-29T05:54:42;100300.25;;;18.76;83.13
76201;BME280;64981;52.930;9.266;2023-07-29T05:57:11;100313.31;;;18.84;83.39
76201;BME280;64981;52.930;9.266;2023-07-29T05:59:36;100318.81;;;18.89;83.21
76201;BME280;64981;52.930;9.266;2023-07-29T06:02:02;100313.34;;;18.96;82.94
76201;BME280;64981;52.930;9.266;2023-07-29T06:04:28;100316.41;;;18.99;82.57
76201;BME280;64981;52.930;9.266;2023-07-29T06:06:54;100316.19;;;19.01;82.64
76201;BME280;64981;52.930;9.266;2023-07-29T06:09:22;100321.53;;;19.01;82.47
76201;BME280;64981;52.930;9.266;2023-07-29T06:11:48;100314.72;;;18.87;83.13
76201;BME280;64981;52.930;9.266;2023-07-29T06:14:13;100327.44;;;18.91;83.66
76201;BME280;64981;52.930;9.266;2023-07-29T06:16:39;100324.38;;;18.88;83.77
76201;BME280;64981;52.930;9.266;2023-07-29T06:19:04;100322.66;;;18.93;83.24
76201;BME280;64981;52.930;9.266;2023-07-29T06:21:30;100320.69;;;18.89;83.64
76201;BME280;64981;52.930;9.266;2023-07-29T06:23:56;100322.22;;;18.96;83.68
76201;BME280;64981;52.930;9.266;2023-07-29T06:26:22;100321.25;;;18.91;83.29
76201;BME280;64981;52.930;9.266;2023-07-29T06:28:47;100329.06;;;18.92;83.67
76201;BME280;64981;52.930;9.266;2023-07-29T06:31:13;100330.03;;;18.98;83.53
76201;BME280;64981;52.930;9.266;2023-07-29T06:33:38;100328.75;;;19.00;83.58
76201;BME280;64981;52.930;9.266;2023-07-29T06:36:04;100320.19;;;19.10;82.71
76201;BME280;64981;52.930;9.266;2023-07-29T06:38:30;100322.59;;;19.11;82.67
76201;BME280;64981;52.930;9.266;2023-07-29T06:40:55;100325.53;;;19.10;82.67
76201;BME280;64981;52.930;9.266;2023-07-29T06:43:21;100321.81;;;19.11;82.65
76201;BME280;64981;52.930;9.266;2023-07-29T06:45:47;100325.06;;;19.13;82.84
76201;BME280;64981;52.930;9.266;2023-07-29T06:48:12;100332.38;;;19.06;83.22
76201;BME280;64981;52.930;9.266;2023-07-29T06:50:38;100325.53;;;19.10;82.94
76201;BME280;64981;52.930;9.266;2023-07-29T06:53:03;100322.94;;;19.03;83.32
76201;BME280;64981;52.930;9.266;2023-07-29T06:55:29;100343.81;;;19.13;83.44
76201;BME280;64981;52.930;9.266;2023-07-29T06:57:55;100323.31;;;19.07;83.23
76201;BME280;64981;52.930;9.266;2023-07-29T07:00:20;100327.88;;;19.18;82.89
76201;BME280;64981;52.930;9.266;2023-07-29T07:02:46;100332.47;;;19.29;82.75
76201;BME280;64981;52.930;9.266;2023-07-29T07:05:11;100345.16;;;19.33;82.60
76201;BME280;64981;52.930;9.266;2023-07-29T07:07:37;100339.66;;;19.28;82.59
76201;BME280;64981;52.930;9.266;2023-07-29T07:10:03;100342.72;;;19.32;82.16
76201;BME280;64981;52.930;9.266;2023-07-29T07:12:29;100344.69;;;19.37;82.33
76201;BME280;64981;52.930;9.266;2023-07-29T07:14:54;100343.78;;;19.43;81.40
76201;BME280;64981;52.930;9.266;2023-07-29T07:17:20;100341.69;;;19.45;81.16
76201;BME280;64981;52.930;9.266;2023-07-29T07:19:45;100343.44;;;19.39;81.79
76201;BME280;64981;52.930;9.266;2023-07-29T07:22:11;100346.13;;;19.39;81.87
76201;BME280;64981;52.930;9.266;2023-07-29T07:24:37;100342.38;;;19.40;82.12
76201;BME280;64981;52.930;9.266;2023-07-29T07:27:03;100336.81;;;19.53;81.39
76201;BME280;64981;52.930;9.266;2023-07-29T07:29:28;100337.75;;;19.47;81.70
76201;BME280;64981;52.930;9.266;2023-07-29T07:31:56;100328.66;;;19.48;81.69
76201;BME280;64981;52.930;9.266;2023-07-29T07:34:22;100343.56;;;19.56;81.29
76201;BME280;64981;52.930;9.266;2023-07-29T07:36:48;100332.22;;;19.60;80.92
76201;BME280;64981;52.930;9.266;2023-07-29T07:39:15;100333.97;;;19.78;80.97
76201;BME280;64981;52.930;9.266;2023-07-29T07:41:41;100332.09;;;19.78;80.63
76201;BME280;64981;52.930;9.266;2023-07-29T07:44:07;100336.66;;;19.90;80.10
76201;BME280;64981;52.930;9.266;2023-07-29T07:46:32;100335.50;;;19.85;79.97
76201;BME280;64981;52.930;9.266;2023-07-29T07:49:00;100337.47;;;19.78;80.13
76201;BME280;64981;52.930;9.266;2023-07-29T07:51:25;100331.91;;;19.80;79.97
76201;BME280;64981;52.930;9.266;2023-07-29T07:53:51;100345.41;;;19.97;79.28
76201;BME280;64981;52.930;9.266;2023-07-29T07:56:17;100345.53;;;20.02;79.34
76201;BME280;64981;52.930;9.266;2023-07-29T07:58:45;100348.06;;;19.97;79.33
76201;BME280;64981;52.930;9.266;2023-07-29T08:01:12;100334.22;;;19.88;79.91
76201;BME280;64981;52.930;9.266;2023-07-29T08:03:37;100345.88;;;19.94;79.67
76201;BME280;64981;52.930;9.266;2023-07-29T08:06:03;100335.84;;;20.01;78.94
76201;BME280;64981;52.930;9.266;2023-07-29T08:08:32;100326.06;;;19.95;78.76
76201;BME280;64981;52.930;9.266;2023-07-29T08:10:58;100344.59;;;20.08;78.51
76201;BME280;64981;52.930;9.266;2023-07-29T08:13:24;100332.91;;;20.02;78.73
76201;BME280;64981;52.930;9.266;2023-07-29T08:15:51;100340.50;;;20.17;78.23
76201;BME280;64981;52.930;9.266;2023-07-29T08:18:17;100340.72;;;20.15;77.99
76201;BME280;64981;52.930;9.266;2023-07-29T08:20:59;100331.75;;;20.21;77.29
76201;BME280;64981;52.930;9.266;2023-07-29T08:23:29;100319.50;;;20.25;76.90
76201;BME280;64981;52.930;9.266;2023-07-29T08:25:58;100323.91;;;20.31;77.36
76201;BME280;64981;52.930;9.266;2023-07-29T08:28:29;100332.44;;;20.40;76.00
76201;BME280;64981;52.930;9.266;2023-07-29T08:30:54;100325.78;;;20.31;76.30
76201;BME280;64981;52.930;9.266;2023-07-29T08:33:20;100333.88;;;20.43;75.67
76201;BME280;64981;52.930;9.266;2023-07-29T08:35:46;100320.28;;;20.49;74.82
76201;BME280;64981;52.930;9.266;2023-07-29T08:38:11;100331.38;;;20.53;74.47
76201;BME280;64981;52.930;9.266;2023-07-29T08:40:42;100325.06;;;20.59;74.39
76201;BME280;64981;52.930;9.266;2023-07-29T08:43:10;100327.47;;;20.72;72.81
76201;BME280;64981;52.930;9.266;2023-07-29T08:45:38;100340.41;;;20.86;71.12
76201;BME280;64981;52.930;9.266;2023-07-29T08:48:09;100336.06;;;20.85;71.50
76201;BME280;64981;52.930;9.266;2023-07-29T08:50:36;100330.69;;;20.85;72.03
76201;BME280;64981;52.930;9.266;2023-07-29T08:53:04;100326.25;;;20.91;71.53
76201;BME280;64981;52.930;9.266;2023-07-29T08:55:31;100327.59;;;21.05;69.80
76201;BME280;64981;52.930;9.266;2023-07-29T08:57:59;100316.81;;;21.17;69.52
76201;BME280;64981;52.930;9.266;2023-07-29T09:00:26;100333.28;;;21.20;69.45
76201;BME280;64981;52.930;9.266;2023-07-29T09:02:52;100337.91;;;21.25;70.29
76201;BME280;64981;52.930;9.266;2023-07-29T09:05:20;100339.63;;;21.31;70.27
76201;BME280;64981;52.930;9.266;2023-07-29T09:07:48;100340.38;;;21.43;69.59
76201;BME280;64981;52.930;9.266;2023-07-29T09:10:14;100309.72;;;21.27;69.60
76201;BME280;64981;52.930;9.266;2023-07-29T09:12:40;100325.00;;;21.38;69.83
76201;BME280;64981;52.930;9.266;2023-07-29T09:15:07;100311.56;;;21.38;69.77
76201;BME280;64981;52.930;9.266;2023-07-29T09:17:33;100323.22;;;21.61;68.51
76201;BME280;64981;52.930;9.266;2023-07-29T09:19:59;100322.88;;;21.57;69.30
76201;BME280;64981;52.930;9.266;2023-07-29T09:22:26;100328.91;;;21.64;68.46
76201;BME280;64981;52.930;9.266;2023-07-29T09:24:52;100325.16;;;21.65;68.10
76201;BME280;64981;52.930;9.266;2023-07-29T09:27:26;100311.38;;;21.78;66.97
76201;BME280;64981;52.930;9.266;2023-07-29T09:29:54;100319.38;;;21.73;67.36
76201;BME280;64981;52.930;9.266;2023-07-29T09:32:22;100317.34;;;21.80;66.55
76201;BME280;64981;52.930;9.266;2023-07-29T09:34:48;100301.97;;;21.92;65.85
76201;BME280;64981;52.930;9.266;2023-07-29T09:37:16;100311.13;;;21.96;65.47
76201;BME280;64981;52.930;9.266;2023-07-29T09:39:44;100313.09;;;22.01;65.08
76201;BME280;64981;52.930;9.266;2023-07-29T09:42:17;100319.16;;;21.91;66.27
76201;BME280;64981;52.930;9.266;2023-07-29T09:44:43;100311.72;;;21.99;66.20
76201;BME280;64981;52.930;9.266;2023-07-29T09:47:08;100308.16;;;21.93;66.16
76201;BME280;64981;52.930;9.266;2023-07-29T09:49:35;100312.84;;;21.86;66.41
76201;BME280;64981;52.930;9.266;2023-07-29T09:52:02;100306.88;;;21.84;66.72
76201;BME280;64981;52.930;9.266;2023-07-29T09:54:30;100309.91;;;21.87;66.38
76201;BME280;64981;52.930;9.266;2023-07-29T09:56:57;100309.09;;;21.87;65.83
76201;BME280;64981;52.930;9.266;2023-07-29T09:59:23;100311.47;;;21.83;65.26
76201;BME280;64981;52.930;9.266;2023-07-29T10:01:50;100317.97;;;21.87;65.84
76201;BME280;64981;52.930;9.266;2023-07-29T10:04:17;100322.63;;;21.75;66.12
76201;BME280;64981;52.930;9.266;2023-07-29T10:06:43;100318.22;;;21.69;66.06
76201;BME280;64981;52.930;9.266;2023-07-29T10:09:11;100317.84;;;21.77;66.09
76201;BME280;64981;52.930;9.266;2023-07-29T10:11:39;100316.25;;;21.81;65.27
76201;BME280;64981;52.930;9.266;2023-07-29T10:14:06;100309.19;;;21.75;65.74
76201;BME280;64981;52.930;9.266;2023-07-29T10:16:32;100304.41;;;21.77;66.07
76201;BME280;64981;52.930;9.266;2023-07-29T10:18:59;100292.94;;;21.87;65.92
76201;BME280;64981;52.930;9.266;2023-07-29T10:21:25;100279.50;;;21.87;65.69
76201;BME280;64981;52.930;9.266;2023-07-29T10:23:57;100301.53;;;22.01;64.05
76201;BME280;64981;52.930;9.266;2023-07-29T10:26:28;100284.97;;;22.09;64.03
76201;BME280;64981;52.930;9.266;2023-07-29T10:28:59;100292.97;;;22.04;64.69
76201;BME280;64981;52.930;9.266;2023-07-29T10:31:30;100302.03;;;21.98;64.42
76201;BME280;64981;52.930;9.266;2023-07-29T10:33:58;100306.91;;;22.01;65.02
76201;BME280;64981;52.930;9.266;2023-07-29T10:36:24;100305.69;;;22.08;64.95
76201;BME280;64981;52.930;9.266;2023-07-29T10:38:50;100296.78;;;22.08;64.38
76201;BME280;64981;52.930;9.266;2023-07-29T10:41:16;100310.16;;;22.03;64.24
76201;BME280;64981;52.930;9.266;2023-07-29T10:43:42;100305.00;;;22.18;63.67
76201;BME280;64981;52.930;9.266;2023-07-29T10:46:23;100298.19;;;22.32;63.18
76201;BME280;64981;52.930;9.266;2023-07-29T10:48:54;100293.63;;;22.32;62.80
76201;BME280;64981;52.930;9.266;2023-07-29T10:51:30;100292.16;;;22.46;62.39
76201;BME280;64981;52.930;9.266;2023-07-29T10:54:00;100296.44;;;22.42;61.59
76201;BME280;64981;52.930;9.266;2023-07-29T10:56:27;100280.16;;;22.32;62.58
76201;BME280;64981;52.930;9.266;2023-07-29T10:58:55;100304.66;;;22.53;62.67
76201;BME280;64981;52.930;9.266;2023-07-29T11:01:30;100305.19;;;22.55;60.87
76201;BME280;64981;52.930;9.266;2023-07-29T11:04:25;100306.28;;;22.75;60.89
76201;BME280;64981;52.930;9.266;2023-07-29T11:07:20;100282.03;;;22.75;60.28
76201;BME280;64981;52.930;9.266;2023-07-29T11:09:54;100301.94;;;22.96;58.63
76201;BME280;64981;52.930;9.266;2023-07-29T11:12:36;100292.97;;;22.90;57.74
76201;BME280;64981;52.930;9.266;2023-07-29T11:15:06;100300.00;;;22.91;57.88
76201;BME280;64981;52.930;9.266;2023-07-29T11:17:42;100296.84;;;22.99;57.99
76201;BME280;64981;52.930;9.266;2023-07-29T11:20:09;100302.16;;;22.94;57.09
76201;BME280;64981;52.930;9.266;2023-07-29T11:22:36;100305.38;;;22.91;58.00
76201;BME280;64981;52.930;9.266;2023-07-29T11:25:02;100300.97;;;22.80;56.08
76201;BME280;64981;52.930;9.266;2023-07-29T11:27:27;100291.75;;;22.76;57.91
76201;BME280;64981;52.930;9.266;2023-07-29T11:29:58;100293.22;;;22.89;58.10
76201;BME280;64981;52.930;9.266;2023-07-29T11:32:25;100294.53;;;23.13;56.51
76201;BME280;64981;52.930;9.266;2023-07-29T11:34:50;100293.84;;;23.28;55.54
76201;BME280;64981;52.930;9.266;2023-07-29T11:37:17;100277.00;;;23.11;56.19
76201;BME280;64981;52.930;9.266;2023-07-29T11:39:43;100290.38;;;23.27;54.83
76201;BME280;64981;52.930;9.266;2023-07-29T11:42:16;100294.56;;;23.40;53.94
76201;BME280;64981;52.930;9.266;2023-07-29T11:44:42;100289.19;;;23.45;54.02
76201;BME280;64981;52.930;9.266;2023-07-29T11:47:09;100297.88;;;23.52;54.74
76201;BME280;64981;52.930;9.266;2023-07-29T11:49:35;100298.91;;;23.46;55.31
76201;BME280;64981;52.930;9.266;2023-07-29T11:52:06;100308.81;;;23.40;55.82
76201;BME280;64981;52.930;9.266;2023-07-29T11:54:35;100306.75;;;23.21;55.79
76201;BME280;64981;52.930;9.266;2023-07-29T11:57:06;100306.25;;;23.24;55.76
76201;BME280;64981;52.930;9.266;2023-07-29T11:59:34;100317.16;;;23.12;55.48
76201;BME280;64981;52.930;9.266;2023-07-29T12:02:02;100305.16;;;23.25;55.16
76201;BME280;64981;52.930;9.266;2023-07-29T12:04:31;100297.81;;;23.15;55.23
76201;BME280;64981;52.930;9.266;2023-07-29T12:06:57;100310.09;;;23.06;55.90
76201;BME280;64981;52.930;9.266;2023-07-29T12:09:24;100319.00;;;23.07;55.48
76201;BME280;64981;52.930;9.266;2023-07-29T12:11:52;100311.88;;;22.95;55.97
76201;BME280;64981;52.930;9.266;2023-07-29T12:14:19;100328.25;;;23.16;56.27
76201;BME280;64981;52.930;9.266;2023-07-29T12:16:48;100316.59;;;23.10;54.58
76201;BME280;64981;52.930;9.266;2023-07-29T12:19:14;100315.28;;;23.13;54.56
76201;BME280;64981;52.930;9.266;2023-07-29T12:21:42;100309.06;;;23.12;53.86
76201;BME280;64981;52.930;9.266;2023-07-29T12:24:08;100319.19;;;23.27;53.61
76201;BME280;64981;52.930;9.266;2023-07-29T12:26:35;100323.50;;;23.28;53.55
76201;BME280;64981;52.930;9.266;2023-07-29T12:29:11;100320.13;;;23.37;53.80
76201;BME280;64981;52.930;9.266;2023-07-29T12:31:38;100319.59;;;23.40;52.40
76201;BME280;64981;52.930;9.266;2023-07-29T12:34:03;100321.53;;;23.45;51.91
76201;BME280;64981;52.930;9.266;2023-07-29T12:36:44;100328.81;;;23.18;53.09
76201;BME280;64981;52.930;9.266;2023-07-29T12:39:19;100308.31;;;23.17;52.66
76201;BME280;64981;52.930;9.266;2023-07-29T12:41:45;100326.31;;;23.38;50.78
76201;BME280;64981;52.930;9.266;2023-07-29T12:44:11;100315.53;;;23.38;51.53
76201;BME280;64981;52.930;9.266;2023-07-29T12:46:38;100325.91;;;23.51;51.92
76201;BME280;64981;52.930;9.266;2023-07-29T12:49:03;100314.16;;;23.62;51.40
76201;BME280;64981;52.930;9.266;2023-07-29T12:51:29;100319.56;;;23.67;51.57
76201;BME280;64981;52.930;9.266;2023-07-29T12:53:54;100324.16;;;23.72;50.69